Time;durP1;ratioP1;P1;durP2;ratioP2;P2;SDS_P1;SDS_P2;PMS_P1;PMS_P2;Temp;Humidity;BMP_temperature;BMP_pressure;BME280_temperature;BME280_humidity;BME280_pressure;Samples;Min_cycle;Max_cycle;Signal;HPM_P1;HPM_P2
2021/01/05 00:02:21;;;;;;;8.98;7.22;;;;;;;6.21;61.36;101598.09;4932884;28;122985;-68
2021/01/05 00:04:48;;;;;;;9.95;7.30;;;;;;;6.21;61.07;101603.38;4934082;28;124714;-68
2021/01/05 00:07:14;;;;;;;10.18;7.10;;;;;;;6.21;60.93;101604.22;4932463;28;114379;-68
2021/01/05 00:09:41;;;;;;;9.95;7.80;;;;;;;6.21;61.19;101603.38;4929888;28;113946;-69
2021/01/05 00:12:11;;;;;;;9.32;7.30;;;;;;;6.22;61.11;101605.13;4914324;28;123326;-69
2021/01/05 00:14:44;;;;;;;10.25;7.20;;;;;;;6.22;60.99;101600.72;4930781;28;124572;-68
2021/01/05 00:17:14;;;;;;;10.60;7.72;;;;;;;6.23;61.32;101601.59;4897338;28;114631;-68
2021/01/05 00:19:40;;;;;;;10.52;7.80;;;;;;;6.23;60.97;101606.84;4916065;28;114541;-69
2021/01/05 00:22:07;;;;;;;9.82;7.55;;;;;;;6.21;60.96;101608.63;4931048;28;123959;-68
2021/01/05 00:24:34;;;;;;;11.05;7.97;;;;;;;6.20;61.13;101601.66;4930656;28;124731;-68
2021/01/05 00:27:02;;;;;;;10.75;7.78;;;;;;;6.20;61.45;101601.66;4930176;28;115470;-68
2021/01/05 00:29:29;;;;;;;11.70;8.25;;;;;;;6.21;61.00;101603.38;4932317;28;113949;-68
2021/01/05 00:32:17;;;;;;;12.13;9.02;;;;;;;6.18;60.81;101608.69;4931472;28;124704;-69
2021/01/05 00:34:45;;;;;;;11.38;8.35;;;;;;;6.15;60.98;101604.31;4931105;28;124596;-68
2021/01/05 00:37:14;;;;;;;11.60;9.02;;;;;;;6.13;60.81;101605.25;4913854;28;114246;-69
2021/01/05 00:39:42;;;;;;;12.35;9.35;;;;;;;6.11;60.87;101607.03;4922153;28;114299;-68
2021/01/05 00:42:09;;;;;;;11.90;8.77;;;;;;;6.11;60.68;101602.63;4911782;28;123978;-69
2021/01/05 00:44:36;;;;;;;12.10;8.80;;;;;;;6.12;60.84;101608.75;4929572;28;123090;-68
2021/01/05 00:47:04;;;;;;;11.05;9.02;;;;;;;6.11;60.77;101601.78;4931187;28;114710;-68
2021/01/05 00:49:31;;;;;;;13.85;9.70;;;;;;;6.12;61.08;101608.75;4930038;28;114635;-68
2021/01/05 00:51:58;;;;;;;13.85;9.10;;;;;;;6.13;60.97;101610.50;4932532;28;124661;-68
2021/01/05 00:54:31;;;;;;;12.25;9.10;;;;;;;6.15;60.64;101608.72;4931891;28;123080;-68
2021/01/05 00:57:01;;;;;;;12.82;8.95;;;;;;;6.17;60.82;101606.94;4918455;28;114286;-67
2021/01/05 00:59:30;;;;;;;13.95;9.52;;;;;;;6.18;60.57;101606.06;4910895;28;112990;-67
2021/01/05 01:01:58;;;;;;;12.90;9.13;;;;;;;6.18;60.64;101613.94;4921290;28;123243;-68
2021/01/05 01:04:26;;;;;;;12.30;8.75;;;;;;;6.18;60.62;101619.22;4914164;28;122277;-68
2021/01/05 01:06:53;;;;;;;12.77;9.27;;;;;;;6.18;60.41;101613.94;4921678;28;114028;-68
2021/01/05 01:09:20;;;;;;;12.98;8.80;;;;;;;6.18;60.54;101619.22;4902653;28;113339;-68
2021/01/05 01:12:15;;;;;;;12.80;9.15;;;;;;;6.15;60.59;101620.09;4914988;28;123142;-68
2021/01/05 01:14:46;;;;;;;12.35;8.65;;;;;;;6.15;60.48;101619.25;4897556;28;123615;-68
2021/01/05 01:17:16;;;;;;;11.82;9.00;;;;;;;6.16;60.17;101615.72;4919014;28;114894;-68
2021/01/05 01:19:43;;;;;;;13.93;9.05;;;;;;;6.15;60.59;101616.63;4902498;28;114097;-68
2021/01/05 01:22:10;;;;;;;11.45;8.63;;;;;;;6.15;60.56;101625.38;4914705;28;123348;-68
2021/01/05 01:24:37;;;;;;;13.65;9.23;;;;;;;6.18;60.45;101619.22;4916516;28;123712;-68
2021/01/05 01:27:23;;;;;;;12.43;8.75;;;;;;;6.19;60.24;101620.94;4930271;28;113519;-68
2021/01/05 01:29:50;;;;;;;13.60;9.07;;;;;;;6.20;60.24;101617.44;4930127;28;113545;-68
2021/01/05 01:32:17;;;;;;;13.55;9.60;;;;;;;6.20;60.55;101620.06;4914319;28;122409;-69
2021/01/05 01:34:45;;;;;;;12.75;9.30;;;;;;;6.20;60.48;101622.69;4898989;28;123424;-68
2021/01/05 01:37:16;;;;;;;12.98;8.93;;;;;;;6.22;60.29;101620.91;4901011;28;113225;-68
2021/01/05 01:39:47;;;;;;;14.85;10.30;;;;;;;6.21;60.30;101619.16;4913869;28;112894;-68
2021/01/05 01:42:19;;;;;;;15.02;10.90;;;;;;;6.20;60.54;101630.56;4917895;28;123142;-68
2021/01/05 01:44:48;;;;;;;15.57;9.75;;;;;;;6.19;60.54;101626.19;4912040;28;123045;-69
2021/01/05 01:47:23;;;;;;;15.63;10.68;;;;;;;6.18;60.79;101624.47;4902882;28;113877;-68
2021/01/05 01:49:56;;;;;;;15.65;10.50;;;;;;;6.19;60.83;101626.19;4917230;28;113200;-68
2021/01/05 01:53:09;;;;;;;15.82;10.82;;;;;;;6.18;60.87;101624.47;4931373;28;123228;-68
2021/01/05 01:56:19;;;;;;;16.35;11.25;;;;;;;6.20;60.89;101617.44;4917566;28;121662;-68
2021/01/05 01:59:36;;;;;;;14.45;10.43;;;;;;;6.18;60.99;101621.84;4928745;28;113552;-68
2021/01/05 02:02:13;;;;;;;14.93;11.02;;;;;;;6.19;60.74;101620.94;4901964;28;113096;-68
2021/01/05 02:04:51;;;;;;;16.35;10.65;;;;;;;6.19;60.66;101618.31;4913428;28;124245;-68
2021/01/05 02:07:36;;;;;;;15.55;11.30;;;;;;;6.19;60.97;101620.94;4901249;28;123349;-68
2021/01/05 02:10:32;;;;;;;16.45;11.30;;;;;;;6.19;61.04;101620.94;4912505;28;114440;-68
2021/01/05 02:13:37;;;;;;;17.20;11.75;;;;;;;6.19;60.54;101618.31;4916130;28;114092;-69
2021/01/05 02:16:29;;;;;;;16.67;11.50;;;;;;;6.22;61.04;101618.28;4911622;28;123090;-68
2021/01/05 02:19:36;;;;;;;17.02;11.55;;;;;;;6.22;60.87;101610.38;4912996;28;123067;-68
2021/01/05 02:22:38;;;;;;;18.40;12.05;;;;;;;6.23;61.13;101612.09;4908196;28;114101;-69
2021/01/05 02:25:32;;;;;;;19.23;12.35;;;;;;;6.23;61.24;101612.09;4918486;28;113309;-69
2021/01/05 02:28:02;;;;;;;19.25;12.90;;;;;;;6.22;61.06;101610.38;4928680;28;124193;-67
2021/01/05 02:30:38;;;;;;;18.35;12.25;;;;;;;6.22;61.19;101610.38;4927585;28;123179;-68
2021/01/05 02:33:24;;;;;;;19.30;13.23;;;;;;;6.22;61.27;101607.75;4916200;28;113066;-68
2021/01/05 02:36:24;;;;;;;20.42;13.55;;;;;;;6.23;61.46;101606.84;4913697;28;112559;-68
2021/01/05 02:40:06;;;;;;;18.27;12.07;;;;;;;6.25;61.48;101599.78;4946630;22;124659;-71
2021/01/05 02:43:20;;;;;;;18.23;12.27;;;;;;;6.24;61.37;101603.34;4911894;28;124863;-71
2021/01/05 02:46:14;;;;;;;18.77;12.48;;;;;;;6.26;61.35;101606.81;4935420;28;115340;-71
2021/01/05 02:49:03;;;;;;;22.02;13.68;;;;;;;6.26;61.38;101604.19;4922202;28;115100;-71
2021/01/05 02:52:07;;;;;;;17.02;12.50;;;;;;;6.26;61.51;101612.06;4934418;28;125434;-71
2021/01/05 02:55:22;;;;;;;19.35;12.48;;;;;;;6.24;61.37;101598.06;4921899;28;124181;-71
2021/01/05 02:58:16;;;;;;;17.88;12.00;;;;;;;6.24;61.32;101595.44;4933965;28;114872;-71
2021/01/05 03:01:39;;;;;;;18.00;11.63;;;;;;;6.24;61.58;101587.56;4937689;28;114834;-71
2021/01/05 03:04:24;;;;;;;17.85;12.10;;;;;;;6.26;61.30;101590.16;4934607;28;124887;-71
2021/01/05 03:07:17;;;;;;;17.30;12.05;;;;;;;6.25;61.24;101594.53;4937180;28;124742;-71
2021/01/05 03:10:31;;;;;;;18.30;12.63;;;;;;;6.26;61.54;101591.03;4899694;28;115672;-70
2021/01/05 03:13:48;;;;;;;18.42;12.30;;;;;;;6.24;61.25;101592.81;4902244;28;115075;-71
2021/01/05 03:16:39;;;;;;;20.15;12.63;;;;;;;6.23;61.06;101581.44;4932197;28;125000;-71
2021/01/05 03:19:52;;;;;;;18.85;12.63;;;;;;;6.21;61.42;101587.59;4938530;28;124797;-71
2021/01/05 03:22:47;;;;;;;17.70;12.00;;;;;;;6.20;61.29;101594.63;4930415;28;115197;-71
2021/01/05 03:25:37;;;;;;;18.03;11.97;;;;;;;6.21;61.40;101593.72;4938452;28;114461;-71
2021/01/05 03:28:26;;;;;;;18.58;12.18;;;;;;;6.24;61.30;101598.06;4924236;28;124456;-71
2021/01/05 03:31:27;;;;;;;17.50;12.15;;;;;;;6.23;61.26;101591.06;4932547;28;125311;-71
2021/01/05 03:34:12;;;;;;;17.73;12.23;;;;;;;6.24;61.33;101592.81;4931623;28;114846;-71
2021/01/05 03:36:57;;;;;;;18.20;12.65;;;;;;;6.24;61.39;101598.06;4936059;28;114754;-71
2021/01/05 03:39:42;;;;;;;17.40;11.33;;;;;;;6.25;61.53;101589.28;4932629;28;124793;-71
2021/01/05 03:42:27;;;;;;;15.55;10.98;;;;;;;6.27;61.40;101591.88;4934458;28;124676;-71
2021/01/05 03:45:27;;;;;;;15.60;11.18;;;;;;;6.26;61.36;101591.03;4932361;28;116839;-71
2021/01/05 03:48:12;;;;;;;16.20;12.05;;;;;;;6.28;61.35;101594.50;4932720;28;115842;-71
2021/01/05 03:50:57;;;;;;;16.98;11.40;;;;;;;6.27;61.30;101598.00;4932382;28;125271;-71
2021/01/05 03:53:43;;;;;;;15.93;11.07;;;;;;;6.27;61.10;101592.75;4932842;28;124817;-70
2021/01/05 03:56:28;;;;;;;15.27;10.85;;;;;;;6.27;61.36;101590.13;4934780;28;114972;-70
2021/01/05 03:59:13;;;;;;;16.17;11.73;;;;;;;6.30;61.18;101591.84;4938693;28;114621;-70
2021/01/05 04:01:58;;;;;;;16.40;11.27;;;;;;;6.33;61.04;101595.31;4935217;28;124828;-70
2021/01/05 04:04:25;;;;;;;15.93;11.20;;;;;;;6.33;61.14;101595.31;4903201;28;122730;-70
2021/01/05 04:06:51;;;;;;;17.02;11.43;;;;;;;6.34;61.04;101599.66;4936580;28;115422;-70
2021/01/05 04:09:18;;;;;;;15.20;11.25;;;;;;;6.36;61.24;101597.88;4936791;28;115192;-70
2021/01/05 04:11:44;;;;;;;14.93;11.13;;;;;;;6.36;61.05;101595.25;4920213;28;122873;-71
2021/01/05 04:14:11;;;;;;;15.35;11.02;;;;;;;6.36;61.18;101592.59;4917753;28;123603;-70
2021/01/05 04:16:37;;;;;;;16.25;12.05;;;;;;;6.37;61.15;101589.09;4921231;28;114265;-70
2021/01/05 04:19:04;;;;;;;15.45;11.55;;;;;;;6.36;60.85;101584.72;4918958;28;113127;-70
2021/01/05 04:21:30;;;;;;;17.27;11.88;;;;;;;6.36;61.17;101597.00;4936667;28;123823;-71
2021/01/05 04:23:57;;;;;;;17.35;12.15;;;;;;;6.36;61.14;101591.75;4937715;28;124117;-70
2021/01/05 04:26:24;;;;;;;18.30;11.77;;;;;;;6.34;60.87;101594.41;4919442;28;113297;-70
2021/01/05 04:28:51;;;;;;;19.10;12.45;;;;;;;6.34;60.82;101594.41;4941370;28;114751;-70
2021/01/05 04:31:17;;;;;;;19.20;11.85;;;;;;;6.33;61.09;101597.94;4938800;28;124503;-72
2021/01/05 04:33:44;;;;;;;16.27;11.60;;;;;;;6.34;60.80;101594.41;4933240;28;124165;-72
2021/01/05 04:36:10;;;;;;;19.48;12.00;;;;;;;6.35;61.25;101590.88;4936491;28;115060;-72
2021/01/05 04:38:37;;;;;;;18.13;11.77;;;;;;;6.34;61.08;101586.50;4919361;28;114355;-72
2021/01/05 04:41:03;;;;;;;18.90;12.05;;;;;;;6.37;60.93;101588.25;4937384;28;124468;-71
2021/01/05 04:43:36;;;;;;;18.33;12.07;;;;;;;6.38;60.93;101590.81;4934326;28;123866;-72
2021/01/05 04:46:15;;;;;;;18.83;12.68;;;;;;;6.37;61.16;101589.09;4917488;28;113580;-72
2021/01/05 04:48:51;;;;;;;18.08;12.38;;;;;;;6.39;61.13;101597.84;4934570;28;113965;-72
2021/01/05 04:51:32;;;;;;;16.90;11.57;;;;;;;6.38;60.99;101596.09;4936913;28;123639;-72
2021/01/05 04:54:21;;;;;;;18.55;12.63;;;;;;;6.37;61.25;101599.63;4924409;28;122821;-72
2021/01/05 04:57:02;;;;;;;18.95;12.18;;;;;;;6.37;61.00;101594.34;4928997;28;115736;-71
2021/01/05 04:59:36;;;;;;;18.77;12.45;;;;;;;6.36;60.91;101595.25;4919045;28;113919;-71
2021/01/05 05:02:13;;;;;;;20.80;13.50;;;;;;;6.34;60.98;101597.03;4933396;28;124442;-72
2021/01/05 05:04:50;;;;;;;20.33;13.18;;;;;;;6.30;60.93;101592.72;4938025;28;124062;-72
2021/01/05 05:07:32;;;;;;;18.60;13.18;;;;;;;6.29;61.32;101585.72;4933603;28;114079;-72
2021/01/05 05:10:10;;;;;;;20.42;12.80;;;;;;;6.31;61.30;101599.72;4922092;28;113219;-72
2021/01/05 05:12:39;;;;;;;19.05;11.90;;;;;;;6.31;61.37;101594.47;4937701;28;124778;-72
2021/01/05 05:15:35;;;;;;;22.40;13.93;;;;;;;6.32;61.37;101601.44;4934725;28;124031;-72
2021/01/05 05:18:20;;;;;;;20.02;12.60;;;;;;;6.31;60.97;101599.72;4931484;28;113232;-72
2021/01/05 05:20:52;;;;;;;17.27;11.90;;;;;;;6.30;61.31;101603.22;4936889;28;114317;-72
2021/01/05 05:24:00;;;;;;;19.08;12.38;;;;;;;6.30;61.28;101605.00;4939277;28;123883;-72
2021/01/05 05:26:46;;;;;;;17.33;11.63;;;;;;;6.30;61.15;101605.88;4934856;28;124017;-72
2021/01/05 05:29:22;;;;;;;17.95;11.95;;;;;;;6.30;61.28;101611.13;4938579;28;112956;-72
2021/01/05 05:31:50;;;;;;;;;;;;;;;6.30;61.36;101611.13;4935560;28;113881;-72
2021/01/05 05:34:23;;;;;;;19.35;12.93;;;;;;;6.31;61.10;101610.25;4931754;28;123443;-72
2021/01/05 05:37:16;;;;;;;20.35;12.75;;;;;;;6.28;60.88;101605.03;4935470;28;124296;-72
2021/01/05 05:40:34;;;;;;;17.15;11.48;;;;;;;6.26;61.18;101612.06;4935437;28;114309;-70
2021/01/05 05:43:23;;;;;;;17.90;11.88;;;;;;;6.26;61.23;101617.34;4894789;28;114267;-70
2021/01/05 05:46:02;;;;;;;18.10;11.82;;;;;;;6.28;61.00;101615.53;4936006;28;124379;-70
2021/01/05 05:48:42;;;;;;;15.55;10.82;;;;;;;6.27;61.06;101613.78;4933469;28;123490;-70
2021/01/05 05:51:34;;;;;;;15.65;11.40;;;;;;;6.27;61.34;101616.41;4917802;28;114985;-70
2021/01/05 05:54:09;;;;;;;16.85;11.02;;;;;;;6.30;61.40;101619.00;4937880;28;114968;-70
2021/01/05 05:56:55;;;;;;;;;;;;;;;6.30;61.08;101624.28;4936602;28;124358;-71
2021/01/05 05:59:39;;;;;;;16.00;11.13;;;;;;;6.33;60.95;101618.97;4920363;28;123064;-70
2021/01/05 06:02:06;;;;;;;17.75;10.38;;;;;;;6.31;61.00;101615.50;4933309;28;114507;-71
2021/01/05 06:04:37;;;;;;;16.45;10.60;;;;;;;6.30;61.20;101621.66;4917207;28;115758;-70
2021/01/05 06:07:04;;;;;;;16.52;10.65;;;;;;;6.31;61.09;101618.13;4917206;28;123394;-70
2021/01/05 06:09:31;;;;;;;16.13;10.40;;;;;;;6.32;60.96;101622.50;4937228;28;124339;-70
2021/01/05 06:11:58;;;;;;;16.95;11.65;;;;;;;6.32;60.85;101619.00;4917186;28;113046;-70
2021/01/05 06:14:25;;;;;;;16.65;11.30;;;;;;;6.33;60.87;101626.88;4935873;28;113917;-70
2021/01/05 06:16:51;;;;;;;16.63;10.65;;;;;;;6.34;61.17;101631.22;4936461;28;124718;-70
2021/01/05 06:19:18;;;;;;;18.98;11.32;;;;;;;6.35;61.19;101626.84;4934738;28;124322;-70
2021/01/05 06:21:44;;;;;;;17.13;11.48;;;;;;;6.35;61.10;101622.47;4934091;28;113444;-70
2021/01/05 06:24:11;;;;;;;19.05;11.25;;;;;;;6.34;61.14;101633.84;4938663;28;114152;-70
2021/01/05 06:26:37;;;;;;;16.25;10.82;;;;;;;6.34;61.01;101631.22;4916924;28;122876;-70
2021/01/05 06:29:04;;;;;;;17.17;11.32;;;;;;;6.36;61.07;101629.44;4937148;28;124182;-70
2021/01/05 06:31:30;;;;;;;17.95;11.63;;;;;;;6.35;61.18;101638.25;4937954;28;114772;-70
2021/01/05 06:33:57;;;;;;;17.38;11.35;;;;;;;6.35;60.90;101627.72;4916737;28;112937;-70
2021/01/05 06:36:24;;;;;;;16.15;11.25;;;;;;;6.37;61.09;101631.19;4933695;28;124050;-70
2021/01/05 06:38:50;;;;;;;18.98;11.82;;;;;;;6.33;60.75;101634.78;4940615;28;124152;-70
2021/01/05 06:41:17;;;;;;;16.58;11.13;;;;;;;6.34;60.82;101639.13;4934440;28;114926;-70
2021/01/05 06:43:44;;;;;;;15.80;11.20;;;;;;;6.32;60.85;101638.28;4934383;28;115850;-71
2021/01/05 06:46:11;;;;;;;15.75;11.35;;;;;;;6.33;60.80;101644.41;4933306;28;124303;-70
2021/01/05 06:48:38;;;;;;;17.67;12.55;;;;;;;6.31;60.96;101647.06;4917745;28;124340;-71
2021/01/05 06:51:06;;;;;;;16.88;10.48;;;;;;;6.31;60.86;101647.06;4934371;28;114554;-70
2021/01/05 06:53:32;;;;;;;15.38;10.98;;;;;;;6.29;61.18;101643.59;4933673;28;114048;-70
2021/01/05 06:55:59;;;;;;;16.17;11.00;;;;;;;6.29;61.13;101654.13;4937649;28;123812;-71
2021/01/05 06:58:31;;;;;;;18.25;11.20;;;;;;;6.30;61.08;101653.22;4934296;28;124890;-70
2021/01/05 07:00:57;;;;;;;17.02;11.55;;;;;;;6.30;60.90;101655.84;4935278;28;114904;-70
2021/01/05 07:03:24;;;;;;;14.73;10.30;;;;;;;6.30;61.35;101645.31;4914892;28;113156;-70
2021/01/05 07:05:50;;;;;;;17.67;11.40;;;;;;;6.29;61.03;101643.59;4935544;28;124920;-70
2021/01/05 07:08:17;;;;;;;19.02;12.35;;;;;;;6.27;61.30;101645.34;4936656;28;124241;-70
2021/01/05 07:10:43;;;;;;;17.48;11.15;;;;;;;6.28;61.41;101647.13;4916937;28;114398;-70
2021/01/05 07:13:10;;;;;;;18.52;11.80;;;;;;;6.28;61.18;101641.84;4920799;28;113253;-70
2021/01/05 07:15:37;;;;;;;16.02;10.98;;;;;;;6.33;61.16;101645.28;4917439;28;124122;-70
2021/01/05 07:18:06;;;;;;;17.52;11.20;;;;;;;6.34;61.37;101652.28;4906862;28;122713;-70
2021/01/05 07:20:48;;;;;;;15.95;10.68;;;;;;;6.36;61.08;101658.38;4917335;28;113269;-71
2021/01/05 07:23:15;;;;;;;16.70;10.45;;;;;;;6.37;61.07;101654.88;4916938;28;112695;-70
2021/01/05 07:25:42;;;;;;;18.27;11.07;;;;;;;6.39;61.02;101655.72;4932008;28;124492;-70
2021/01/05 07:28:08;;;;;;;17.33;11.50;;;;;;;6.40;61.33;101654.84;4935731;28;123932;-70
2021/01/05 07:30:35;;;;;;;17.50;11.77;;;;;;;6.41;61.13;101659.19;4932437;28;116029;-71
2021/01/05 07:33:01;;;;;;;16.98;11.05;;;;;;;6.41;61.17;101661.81;4937116;28;115230;-70
2021/01/05 07:35:28;;;;;;;17.75;12.25;;;;;;;6.42;61.08;101660.94;4935038;28;124425;-70
2021/01/05 07:37:54;;;;;;;20.67;11.68;;;;;;;6.42;61.05;101662.69;4937188;28;124717;-70
2021/01/05 07:40:21;;;;;;;18.30;11.05;;;;;;;6.41;61.02;101659.19;4922641;28;114557;-70
2021/01/05 07:42:47;;;;;;;19.00;12.15;;;;;;;6.41;61.43;101664.47;4940311;28;114134;-71
2021/01/05 07:45:20;;;;;;;20.17;12.05;;;;;;;6.42;61.23;101660.06;4902990;28;122950;-70
2021/01/05 07:47:49;;;;;;;17.02;10.60;;;;;;;6.42;61.19;101666.22;4919226;28;124338;-70
2021/01/05 07:50:21;;;;;;;18.08;11.30;;;;;;;6.41;61.21;101674.97;4935646;28;115009;-70
2021/01/05 07:52:48;;;;;;;19.10;11.93;;;;;;;6.42;60.97;101670.56;4921023;28;113187;-70
2021/01/05 07:55:20;;;;;;;22.17;12.65;;;;;;;6.39;61.33;101666.25;4939428;28;124155;-71
2021/01/05 07:57:48;;;;;;;20.15;12.05;;;;;;;6.39;61.25;101665.38;4903997;28;123157;-70
2021/01/05 08:00:17;;;;;;;18.92;11.98;;;;;;;6.38;60.94;101677.63;4938872;28;114351;-70
2021/01/05 08:02:44;;;;;;;20.60;12.73;;;;;;;6.37;60.96;101673.28;4920623;28;113942;-70
2021/01/05 08:05:14;;;;;;;19.65;12.18;;;;;;;6.38;61.43;101682.03;4933721;28;124074;-70
2021/01/05 08:07:40;;;;;;;19.23;11.85;;;;;;;6.40;61.40;101686.41;4936449;28;124542;-70
2021/01/05 08:10:08;;;;;;;21.83;12.13;;;;;;;6.43;61.13;101682.84;4917882;28;114695;-70
2021/01/05 08:12:35;;;;;;;21.55;12.43;;;;;;;6.47;61.31;101688.94;4943759;28;114081;-71
2021/01/05 08:15:02;;;;;;;20.42;12.20;;;;;;;6.49;61.33;101687.16;4922366;28;124440;-71
2021/01/05 08:17:29;;;;;;;22.88;12.85;;;;;;;6.52;61.39;101681.88;4937131;28;124609;-70
2021/01/05 08:19:55;;;;;;;20.98;12.27;;;;;;;6.54;61.34;101685.34;4924292;28;114237;-70
2021/01/05 08:22:22;;;;;;;21.35;12.20;;;;;;;6.56;61.32;101683.56;4939610;28;115915;-70
2021/01/05 08:24:49;;;;;;;20.90;12.88;;;;;;;6.58;60.97;101692.28;4918499;28;123799;-70
2021/01/05 08:27:15;;;;;;;24.20;13.07;;;;;;;6.58;61.20;101681.75;4920387;28;123308;-71
2021/01/05 08:29:42;;;;;;;23.88;13.75;;;;;;;6.58;60.91;101684.41;4918356;28;114093;-70
2021/01/05 08:32:09;;;;;;;22.45;13.25;;;;;;;6.58;60.82;101687.88;4919936;28;113390;-70
2021/01/05 08:34:36;;;;;;;23.35;13.60;;;;;;;6.58;60.98;101687.88;4916265;28;123805;-70
2021/01/05 08:37:02;;;;;;;21.13;13.00;;;;;;;6.59;60.89;101688.75;4935650;28;123473;-70
2021/01/05 08:39:29;;;;;;;23.83;13.60;;;;;;;6.60;61.10;101685.25;4932587;28;114037;-71
2021/01/05 08:41:56;;;;;;;23.13;12.68;;;;;;;6.62;61.12;101691.34;4949232;22;113841;-67
2021/01/05 08:44:25;;;;;;;24.83;13.40;;;;;;;6.63;61.19;101690.47;4935196;28;123541;-67
2021/01/05 08:46:59;;;;;;;22.23;13.30;;;;;;;6.64;61.29;101697.47;4918409;28;124057;-68
2021/01/05 08:49:27;;;;;;;25.02;14.32;;;;;;;6.64;61.05;101697.47;4915780;28;113892;-67
2021/01/05 08:51:54;;;;;;;24.02;14.10;;;;;;;6.63;60.79;101690.47;4923856;28;114740;-67
2021/01/05 08:54:21;;;;;;;23.88;14.30;;;;;;;6.63;61.17;101701.00;4898891;28;123063;-69
2021/01/05 08:56:56;;;;;;;23.80;13.32;;;;;;;6.62;61.04;101693.97;4921734;28;124588;-69
2021/01/05 08:59:23;;;;;;;22.63;12.98;;;;;;;6.65;61.02;101707.09;4914627;28;114533;-67
2021/01/05 09:01:50;;;;;;;23.90;13.25;;;;;;;6.65;61.00;101699.22;4914084;28;113044;-67
2021/01/05 09:04:16;;;;;;;24.25;14.20;;;;;;;6.67;60.85;101702.69;4913525;28;123588;-68
2021/01/05 09:06:48;;;;;;;26.70;14.25;;;;;;;6.67;61.03;101692.16;4915546;28;123052;-68
2021/01/05 09:09:16;;;;;;;25.17;13.80;;;;;;;6.69;60.81;101700.91;4914844;28;115229;-68
2021/01/05 09:11:43;;;;;;;28.60;13.52;;;;;;;6.70;60.95;101697.34;4926760;28;113832;-68
2021/01/05 09:14:11;;;;;;;24.15;13.98;;;;;;;6.71;61.08;101704.38;4938266;28;123834;-68
2021/01/05 09:16:37;;;;;;;24.55;13.38;;;;;;;6.71;60.81;101708.78;4940545;28;123099;-68
2021/01/05 09:19:04;;;;;;;25.10;13.75;;;;;;;6.69;60.81;101705.31;4915139;28;114332;-68
2021/01/05 09:21:30;;;;;;;23.83;13.23;;;;;;;6.68;60.76;101704.41;4908078;28;113993;-68
2021/01/05 09:23:59;;;;;;;23.13;13.32;;;;;;;6.67;61.02;101707.97;4914494;28;124565;-67
2021/01/05 09:26:32;;;;;;;23.45;13.75;;;;;;;6.70;61.03;101707.88;4912315;28;123990;-68
2021/01/05 09:29:00;;;;;;;22.17;13.35;;;;;;;6.71;60.61;101714.91;4914681;28;114163;-68
2021/01/05 09:31:26;;;;;;;23.20;13.57;;;;;;;6.71;60.61;101703.50;4915315;28;114367;-68
2021/01/05 09:33:54;;;;;;;22.65;13.05;;;;;;;6.69;60.87;101706.16;4911763;28;125040;-67
2021/01/05 09:36:32;;;;;;;24.40;13.30;;;;;;;6.70;60.99;101709.66;4903470;28;124089;-67
2021/01/05 09:39:00;;;;;;;23.17;12.75;;;;;;;6.71;60.85;101701.75;4919226;28;114298;-68
2021/01/05 09:41:34;;;;;;;19.38;12.43;;;;;;;6.72;61.10;101706.09;4910650;28;113827;-67
2021/01/05 09:44:01;;;;;;;21.25;12.15;;;;;;;6.72;60.97;101716.63;4912091;28;124121;-68
2021/01/05 09:46:27;;;;;;;22.02;12.70;;;;;;;6.74;60.79;101699.06;4913941;28;123882;-67
2021/01/05 09:48:54;;;;;;;20.75;12.60;;;;;;;6.76;60.58;101713.09;4912473;28;113451;-68
2021/01/05 09:51:30;;;;;;;20.80;12.30;;;;;;;6.76;60.66;101713.09;4914558;28;114122;-68
2021/01/05 09:54:14;;;;;;;22.23;12.52;;;;;;;6.77;60.53;101709.53;4912647;28;123973;-68
2021/01/05 09:56:41;;;;;;;21.88;12.77;;;;;;;6.77;60.77;101714.81;4906591;28;123563;-68
2021/01/05 09:59:08;;;;;;;21.40;12.82;;;;;;;6.77;60.80;101712.16;4918308;28;115472;-68
2021/01/05 10:01:35;;;;;;;23.83;12.32;;;;;;;6.78;60.62;101711.28;4921494;28;114685;-68
2021/01/05 10:04:02;;;;;;;22.35;12.77;;;;;;;6.79;60.88;101706.88;4915759;28;124839;-68
2021/01/05 10:06:30;;;;;;;18.55;12.43;;;;;;;6.81;60.59;101705.09;4909758;28;122525;-68
2021/01/05 10:08:57;;;;;;;21.40;12.93;;;;;;;6.82;60.71;101718.25;4915776;28;114615;-69
2021/01/05 10:11:32;;;;;;;22.80;13.35;;;;;;;6.81;60.54;101716.50;4906760;28;113828;-68
2021/01/05 10:13:59;;;;;;;21.27;12.10;;;;;;;6.81;60.51;101716.50;4907969;28;124386;-68
2021/01/05 10:16:26;;;;;;;23.83;13.77;;;;;;;6.81;60.80;101716.50;4913502;28;123333;-68
2021/01/05 10:18:53;;;;;;;22.30;13.20;;;;;;;6.82;60.91;101717.38;4890777;28;113703;-68
2021/01/05 10:21:23;;;;;;;22.15;12.93;;;;;;;6.82;60.90;101712.97;4913553;28;115007;-68
2021/01/05 10:23:50;;;;;;;24.45;13.65;;;;;;;6.87;60.58;101714.66;4911898;28;124096;-68
2021/01/05 10:26:17;;;;;;;23.73;13.52;;;;;;;6.88;60.54;101711.16;4897252;28;123578;-68
2021/01/05 10:28:43;;;;;;;20.05;12.88;;;;;;;6.88;60.75;101700.63;4918245;28;114511;-68
2021/01/05 10:31:10;;;;;;;23.23;13.57;;;;;;;6.90;60.68;101706.72;4918231;28;114123;-68
2021/01/05 10:33:36;;;;;;;21.40;13.20;;;;;;;6.90;60.50;101714.63;4910444;28;123781;-68
2021/01/05 10:36:03;;;;;;;24.13;13.75;;;;;;;6.91;60.73;101705.81;4915141;28;124924;-68
2021/01/05 10:38:30;;;;;;;24.65;13.98;;;;;;;6.91;60.87;101708.44;4917443;28;114111;-68
2021/01/05 10:40:56;;;;;;;21.92;13.30;;;;;;;6.91;60.77;101711.09;4910483;28;114279;-69
2021/01/05 10:43:23;;;;;;;22.35;14.18;;;;;;;6.92;60.52;101704.94;4909795;28;122911;-69
2021/01/05 10:45:50;;;;;;;25.02;13.70;;;;;;;6.93;60.80;101709.28;4932051;28;123885;-69
2021/01/05 10:48:16;;;;;;;22.67;13.60;;;;;;;6.93;60.73;101704.03;4922289;28;115935;-68
2021/01/05 10:50:43;;;;;;;22.95;13.57;;;;;;;6.97;60.45;101700.47;4931679;28;114931;-69
2021/01/05 10:53:10;;;;;;;22.45;14.15;;;;;;;6.97;60.59;101700.47;4931302;28;123718;-66
2021/01/05 10:55:36;;;;;;;23.30;14.82;;;;;;;6.98;60.72;101702.19;4931147;28;123721;-66
2021/01/05 10:58:03;;;;;;;21.42;13.23;;;;;;;6.99;60.67;101693.41;4914882;28;114235;-68
2021/01/05 11:00:30;;;;;;;23.33;13.80;;;;;;;6.99;60.29;101698.69;4931946;28;114044;-67
2021/01/05 11:02:56;;;;;;;22.52;14.20;;;;;;;7.00;60.46;101697.78;4928797;28;123773;-67
2021/01/05 11:05:23;;;;;;;23.15;13.52;;;;;;;6.99;60.50;101703.97;4910619;28;124431;-67
2021/01/05 11:07:51;;;;;;;21.52;13.85;;;;;;;6.99;60.45;101701.31;4916931;28;114614;-68
2021/01/05 11:10:20;;;;;;;22.98;13.57;;;;;;;7.01;60.64;101699.53;4935151;28;113777;-67
2021/01/05 11:12:47;;;;;;;22.67;13.20;;;;;;;7.03;60.68;101700.38;4930280;28;122972;-67
2021/01/05 11:15:16;;;;;;;23.33;14.05;;;;;;;7.04;60.41;101694.19;4934743;28;124013;-67
2021/01/05 11:17:45;;;;;;;22.17;13.88;;;;;;;7.05;60.27;101697.72;4931515;28;114186;-67
2021/01/05 11:20:17;;;;;;;23.05;13.90;;;;;;;7.04;60.38;101696.81;4916602;28;114829;-68
2021/01/05 11:22:43;;;;;;;19.55;12.82;;;;;;;7.05;60.36;101693.31;4914485;28;123977;-68
2021/01/05 11:25:15;;;;;;;19.98;12.77;;;;;;;7.05;60.28;101698.56;4933468;28;123697;-69
2021/01/05 11:27:42;;;;;;;22.80;13.95;;;;;;;7.06;60.12;101695.03;4920675;28;114079;-67
2021/01/05 11:30:16;;;;;;;22.33;13.65;;;;;;;7.05;60.08;101688.03;4916823;28;114382;-67
2021/01/05 11:32:42;;;;;;;18.75;13.20;;;;;;;7.05;60.44;101682.78;4920145;28;124277;-68
2021/01/05 11:35:09;;;;;;;21.20;13.45;;;;;;;7.05;60.34;101674.88;4919894;28;123840;-67
2021/01/05 11:37:36;;;;;;;22.48;13.90;;;;;;;7.05;60.46;101666.09;4919580;28;115284;-68
2021/01/05 11:40:05;;;;;;;20.48;13.93;;;;;;;7.06;60.35;101668.69;4918199;28;115039;-69
2021/01/05 11:42:32;;;;;;;23.52;14.05;;;;;;;7.06;59.88;101668.69;4906661;28;123858;-67
2021/01/05 11:44:58;;;;;;;20.35;13.55;;;;;;;7.06;60.10;101666.06;4928767;28;123716;-69